Bradley, West Virginia
Current Conditions -  °F | °C
As of 6:51 PM on Monday 24 Nov 2014 (Local Time) from KBKW Reporting Station
Clear Clear  
Wind Chill: 61°   Ceiling: Unl
Heat Index: 61°   Visibility: 10mi
Dew Point: 37°   Wind: 10mph
Humidity: 41%   Direction: 250°WSW
Pressure: 29.78"   Gusts: NA
Location:  37.86°N, 81.2°W
Report Text: KBKW 242351Z AUTO 25009KT 10SM CLR 16/03 A2978 RMK AO2 SLP067 T01610028 10200 20161 53027
Loading
Personal Weather Stations






























Interactive Weather Map New forecast layout! Learn more

10-Day Weather Forecast

Advertisements
Track Severe Weather on mobile